Time,TemperatureF,DewpointF,PressureIn,WindDirection,WindDirectionDegrees,WindSpeedMPH,WindSpeedGustMPH,Humidity,HourlyPrecipIn,Conditions,Clouds,dailyrainin,SoftwareType,DateUTC
2013-08-13 00:01:00,69.2,68.0,30.03,NNW,345,0.0,0.0,96,0.00,,SCT070,0.00,VWS V14.00,2013-08-13 04:01:00,
2013-08-13 00:02:00,69.2,68.0,30.03,NNW,345,0.0,0.0,96,0.00,,SCT070,0.00,VWS V14.00,2013-08-13 04:02:00,
2013-08-13 00:07:00,69.2,68.0,30.03,NNW,345,0.0,0.0,96,0.00,,SCT070,0.00,VWS V14.00,2013-08-13 04:07:00,
2013-08-13 00:12:00,69.2,68.0,30.03,NNW,345,0.0,0.0,96,0.00,,SCT070,0.00,VWS V14.00,2013-08-13 04:12:00,
2013-08-13 00:17:00,69.0,67.9,30.03,NNW,345,0.0,0.0,96,0.00,,SCT070,0.00,VWS V14.00,2013-08-13 04:17:00,
2013-08-13 00:22:00,69.0,68.2,30.03,NNW,345,0.0,0.0,97,0.00,,SCT070,0.00,VWS V14.00,2013-08-13 04:22:00,
2013-08-13 00:27:00,69.2,68.3,30.03,NNW,345,0.0,0.0,97,0.00,,SCT070,0.00,VWS V14.00,2013-08-13 04:27:00,
2013-08-13 00:32:00,69.2,68.3,30.03,NNW,345,0.0,0.0,97,0.00,,SCT070,0.00,VWS V14.00,2013-08-13 04:32:00,
2013-08-13 00:37:00,69.2,68.3,30.03,NNW,345,0.0,0.0,97,0.00,,SCT070,0.00,VWS V14.00,2013-08-13 04:37:00,
2013-08-13 00:43:00,69.0,68.2,30.03,NNW,345,0.0,0.0,97,0.00,,SCT070,0.00,VWS V14.00,2013-08-13 04:43:00,
2013-08-13 00:47:00,69.0,68.2,30.00,NNW,345,0.0,0.0,97,0.00,,SCT070,0.00,VWS V14.00,2013-08-13 04:47:00,
2013-08-13 00:53:00,69.0,68.2,30.00,NNW,345,0.0,0.0,97,0.00,,SCT070,0.00,VWS V14.00,2013-08-13 04:53:00,
2013-08-13 00:58:00,68.7,68.1,30.00,NNW,345,0.0,0.0,98,0.00,,SCT070,0.00,VWS V14.00,2013-08-13 04:58:00,
2013-08-13 01:03:00,68.8,68.3,30.00,NNW,345,0.0,0.0,98,0.00,,SCT070,0.00,VWS V14.00,2013-08-13 05:03:00,
2013-08-13 01:08:00,68.8,68.3,30.00,NNW,345,0.0,0.0,98,0.00,,SCT070,0.00,VWS V14.00,2013-08-13 05:08:00,
2013-08-13 01:13:00,68.8,68.3,30.00,NNW,345,0.0,0.0,98,0.00,,SCT070,0.00,VWS V14.00,2013-08-13 05:13:00,
2013-08-13 01:18:00,68.8,68.3,30.00,NNW,345,0.0,0.0,98,0.00,,OVC070,0.00,VWS V14.00,2013-08-13 05:18:00,
2013-08-13 01:23:00,68.8,68.3,30.00,NNW,345,0.0,0.0,98,0.00,,OVC070,0.00,VWS V14.00,2013-08-13 05:23:00,
2013-08-13 01:28:00,68.7,68.1,30.00,NNW,345,0.0,0.0,98,0.00,,OVC070,0.00,VWS V14.00,2013-08-13 05:28:00,
2013-08-13 01:33:00,68.7,68.1,30.00,NNW,345,0.0,0.0,98,0.00,,OVC070,0.00,VWS V14.00,2013-08-13 05:33:00,
2013-08-13 01:39:00,68.8,68.3,30.00,NNW,345,0.0,0.0,98,0.00,,OVC070,0.00,VWS V14.00,2013-08-13 05:39:00,
2013-08-13 01:44:00,68.8,68.3,30.00,NNW,345,0.0,0.0,98,0.00,,OVC070,0.00,VWS V14.00,2013-08-13 05:44:00,
2013-08-13 01:49:00,68.5,67.9,30.00,NNW,345,0.0,0.0,98,0.00,,OVC070,0.00,VWS V14.00,2013-08-13 05:49:00,
2013-08-13 01:54:00,68.5,67.9,30.00,NNW,345,0.0,0.0,98,0.00,,OVC070,0.00,VWS V14.00,2013-08-13 05:54:00,
2013-08-13 01:59:00,68.5,67.9,30.00,NNW,345,0.0,0.0,98,0.00,,OVC070,0.00,VWS V14.00,2013-08-13 05:59:00,
2013-08-13 02:04:00,68.5,67.9,29.97,NNW,345,0.0,0.0,98,0.00,, +RA,0.00,VWS V14.00,2013-08-13 06:04:00,
2013-08-13 02:09:00,68.5,67.9,29.97,NNW,345,0.0,0.0,98,0.00,, +RA,0.00,VWS V14.00,2013-08-13 06:09:00,
2013-08-13 02:14:00,68.5,67.9,29.97,NNW,345,0.0,0.0,98,0.00,, +RA,0.00,VWS V14.00,2013-08-13 06:14:00,
2013-08-13 02:19:00,68.5,67.9,29.97,South,191,0.0,0.0,98,0.00,,-RA,0.00,VWS V14.00,2013-08-13 06:19:00,
2013-08-13 02:24:00,68.5,67.9,29.97,South,191,0.0,0.0,98,0.00,,-RA,0.00,VWS V14.00,2013-08-13 06:24:00,
2013-08-13 02:29:00,68.5,67.9,29.97,South,191,0.0,0.0,98,0.00,,-RA,0.00,VWS V14.00,2013-08-13 06:29:00,
2013-08-13 02:34:00,68.7,68.1,29.97,South,191,0.0,0.0,98,0.00,,-RA,0.00,VWS V14.00,2013-08-13 06:34:00,
2013-08-13 02:40:00,68.7,68.1,29.97,South,191,0.0,0.0,98,0.00,,-RA,0.00,VWS V14.00,2013-08-13 06:40:00,
2013-08-13 02:45:00,68.5,67.9,29.97,South,191,0.0,0.0,98,0.00,,-RA,0.00,VWS V14.00,2013-08-13 06:45:00,
2013-08-13 02:50:00,68.7,68.1,29.97,South,191,0.0,0.0,98,0.00,,-RA,0.00,VWS V14.00,2013-08-13 06:50:00,
2013-08-13 02:55:00,68.7,68.1,29.97,SSE,166,0.0,0.0,98,0.00,,-RA,0.00,VWS V14.00,2013-08-13 06:55:00,
2013-08-13 03:00:00,68.7,68.1,29.97,South,180,0.0,0.0,98,0.00,,BKN120,0.00,VWS V14.00,2013-08-13 07:00:00,
2013-08-13 03:05:00,68.7,68.1,29.97,SSW,192,2.5,2.7,98,0.00,,BKN120,0.00,VWS V14.00,2013-08-13 07:05:00,
2013-08-13 03:10:00,68.7,68.1,29.97,SW,214,0.0,2.7,98,0.00,,BKN120,0.00,VWS V14.00,2013-08-13 07:10:00,
2013-08-13 03:15:00,68.8,68.3,29.94,SSE,153,0.0,0.0,98,0.00,,BKN120,0.00,VWS V14.00,2013-08-13 07:15:00,
2013-08-13 03:20:00,68.8,68.3,29.94,SSE,163,0.0,0.0,98,0.00,,BKN120,0.00,VWS V14.00,2013-08-13 07:20:00,
2013-08-13 03:25:00,68.7,68.1,29.94,SSW,193,6.4,7.0,98,0.00,,BKN120,0.00,VWS V14.00,2013-08-13 07:25:00,
2013-08-13 03:31:00,68.7,68.1,29.97,SSE,159,3.4,3.8,98,0.00,,FEW009,0.00,VWS V14.00,2013-08-13 07:31:00,
2013-08-13 03:36:00,68.7,68.1,29.97,South,179,3.9,4.3,98,0.00,,FEW009,0.00,VWS V14.00,2013-08-13 07:36:00,
2013-08-13 03:41:00,68.7,68.1,29.97,ESE,114,2.5,4.8,98,0.00,,FEW009,0.00,VWS V14.00,2013-08-13 07:41:00,
2013-08-13 03:46:00,68.7,68.1,29.94,SSE,163,3.9,4.8,98,0.00,,FEW009,0.00,VWS V14.00,2013-08-13 07:46:00,
2013-08-13 03:51:00,68.7,68.1,29.94,South,173,2.5,4.3,98,0.00,,FEW009,0.00,VWS V14.00,2013-08-13 07:51:00,
2013-08-13 03:56:00,68.7,68.1,29.94,SSE,151,3.0,3.8,98,0.00,,FEW009,0.00,VWS V14.00,2013-08-13 07:56:00,
2013-08-13 04:01:00,68.7,68.1,29.94,ESE,106,3.0,3.8,98,0.00,,CLR,0.00,VWS V14.00,2013-08-13 08:01:00,
2013-08-13 04:06:00,68.7,68.1,29.94,SSE,161,2.5,3.2,98,0.00,,CLR,0.00,VWS V14.00,2013-08-13 08:06:00,
2013-08-13 04:11:00,68.7,68.1,29.94,South,190,3.0,3.8,98,0.00,,CLR,0.00,VWS V14.00,2013-08-13 08:11:00,
2013-08-13 04:16:00,68.7,68.1,29.94,South,186,3.0,3.2,98,0.00,,CLR,0.00,VWS V14.00,2013-08-13 08:16:00,
2013-08-13 04:21:00,68.5,67.9,29.94,South,186,3.0,3.2,98,0.00,,CLR,0.00,VWS V14.00,2013-08-13 08:21:00,
2013-08-13 04:26:00,68.5,67.9,29.94,SSW,193,2.5,3.2,98,0.00,,CLR,0.00,VWS V14.00,2013-08-13 08:26:00,
2013-08-13 04:31:00,68.5,67.9,29.94,SSE,168,3.4,4.8,98,0.00,,SCT006,0.00,VWS V14.00,2013-08-13 08:31:00,
2013-08-13 04:37:00,68.5,67.9,29.94,SE,142,3.9,4.3,98,0.00,,SCT006,0.00,VWS V14.00,2013-08-13 08:37:00,
2013-08-13 04:42:00,68.5,67.9,29.94,South,175,3.0,4.3,98,0.00,,SCT006,0.00,VWS V14.00,2013-08-13 08:42:00,
2013-08-13 04:47:00,68.5,67.9,29.94,SW,217,3.9,4.3,98,0.00,,BKN011,0.00,VWS V14.00,2013-08-13 08:47:00,
2013-08-13 04:52:00,68.5,67.9,29.94,South,182,3.9,4.3,98,0.00,,BKN011,0.00,VWS V14.00,2013-08-13 08:52:00,
2013-08-13 04:57:00,68.3,67.7,29.94,SSW,201,3.9,4.8,98,0.00,,BKN011,0.00,VWS V14.00,2013-08-13 08:57:00,
2013-08-13 05:02:00,68.3,67.7,29.94,South,183,3.9,6.4,98,0.00,,OVC010,0.00,VWS V14.00,2013-08-13 09:02:00,
2013-08-13 05:07:00,68.3,67.7,29.94,SSE,168,3.4,6.4,98,0.00,,OVC010,0.00,VWS V14.00,2013-08-13 09:07:00,
2013-08-13 05:12:00,68.3,67.7,29.94,SSW,201,4.4,7.5,98,0.00,,OVC010,0.00,VWS V14.00,2013-08-13 09:12:00,
2013-08-13 05:17:00,68.3,67.7,29.94,South,176,3.0,4.8,98,0.00,,OVC010,0.00,VWS V14.00,2013-08-13 09:17:00,
2013-08-13 05:22:00,68.3,67.7,29.94,WSW,239,3.9,5.4,98,0.00,,OVC010,0.00,VWS V14.00,2013-08-13 09:22:00,
2013-08-13 05:28:00,68.3,67.7,29.94,SSE,167,3.9,4.3,98,0.00,,OVC010,0.00,VWS V14.00,2013-08-13 09:28:00,
2013-08-13 05:33:00,68.3,67.7,29.94,SSW,200,0.0,2.7,98,0.00,,OVC010,0.00,VWS V14.00,2013-08-13 09:33:00,
2013-08-13 05:38:00,68.3,67.7,29.94,SSW,213,3.0,4.3,98,0.00,,OVC010,0.00,VWS V14.00,2013-08-13 09:38:00,
2013-08-13 05:43:00,68.3,67.7,29.94,SW,227,5.9,6.4,98,0.00,,OVC010,0.00,VWS V14.00,2013-08-13 09:43:00,
2013-08-13 05:48:00,68.3,67.7,29.94,South,179,3.0,4.3,98,0.00,,-RA,0.00,VWS V14.00,2013-08-13 09:48:00,
2013-08-13 05:53:00,68.3,67.7,29.94,SSE,159,3.4,5.9,98,0.00,,-RA,0.00,VWS V14.00,2013-08-13 09:53:00,
2013-08-13 05:58:00,68.3,67.7,29.94,South,182,3.9,5.9,98,0.00,,-RA,0.00,VWS V14.00,2013-08-13 09:58:00,
2013-08-13 06:03:00,68.5,67.9,29.94,South,178,2.5,4.8,98,0.00,,-RA,0.00,VWS V14.00,2013-08-13 10:03:00,
2013-08-13 06:08:00,68.5,67.9,29.94,SSE,154,5.4,5.9,98,0.00,,-RA,0.00,VWS V14.00,2013-08-13 10:08:00,
2013-08-13 06:13:00,68.7,68.1,29.94,South,182,3.4,6.4,98,0.00,,-RA,0.00,VWS V14.00,2013-08-13 10:13:00,
2013-08-13 06:18:00,68.7,68.1,29.94,SE,143,5.4,7.5,98,0.01,,-RA,0.01,VWS V14.00,2013-08-13 10:18:00,
2013-08-13 06:23:00,68.7,68.1,29.94,South,173,6.4,7.0,98,0.02,,-RA,0.02,VWS V14.00,2013-08-13 10:23:00,
2013-08-13 06:29:00,68.7,68.1,29.94,SSE,149,3.4,4.3,98,0.02,,-RA,0.02,VWS V14.00,2013-08-13 10:29:00,
2013-08-13 06:34:00,68.7,68.1,29.94,South,178,0.0,4.3,98,0.02,,-RA,0.02,VWS V14.00,2013-08-13 10:34:00,
2013-08-13 06:39:00,68.5,67.6,29.94,SE,141,3.9,6.4,97,0.02,,-RA,0.02,VWS V14.00,2013-08-13 10:39:00,
2013-08-13 06:44:00,68.5,67.3,29.94,SSE,168,3.0,4.8,96,0.02,,-RA,0.02,VWS V14.00,2013-08-13 10:44:00,
2013-08-13 06:49:00,68.3,67.1,29.94,SSW,193,4.4,5.9,96,0.02,,-RA,0.02,VWS V14.00,2013-08-13 10:49:00,
2013-08-13 06:54:00,68.5,67.3,29.94,SSE,168,3.0,4.8,96,0.02,,-RA,0.02,VWS V14.00,2013-08-13 10:54:00,
2013-08-13 06:59:00,68.5,67.0,29.94,South,175,3.9,6.4,95,0.02,,-RA,0.02,VWS V14.00,2013-08-13 10:59:00,
2013-08-13 07:04:00,68.5,67.3,29.94,South,190,3.4,3.8,96,0.02,,-RA,0.02,VWS V14.00,2013-08-13 11:04:00,
2013-08-13 07:09:00,68.5,67.0,29.94,SSE,167,6.9,8.1,95,0.02,,-RA,0.02,VWS V14.00,2013-08-13 11:09:00,
2013-08-13 07:14:00,68.5,66.7,29.94,ESE,102,3.0,5.4,94,0.02,,-RA,0.02,VWS V14.00,2013-08-13 11:14:00,
2013-08-13 07:20:00,68.5,66.7,29.94,SSE,155,3.9,4.3,94,0.01,,-RA,0.02,VWS V14.00,2013-08-13 11:20:00,
2013-08-13 07:25:00,68.5,66.7,29.94,SSW,199,2.5,4.3,94,0.00,,-RA,0.02,VWS V14.00,2013-08-13 11:25:00,
2013-08-13 07:30:00,68.5,67.0,29.94,South,185,0.0,0.0,95,0.00,,-RA,0.02,VWS V14.00,2013-08-13 11:30:00,
2013-08-13 07:35:00,68.5,67.0,29.94,SSE,157,0.0,4.3,95,0.00,,-RA,0.02,VWS V14.00,2013-08-13 11:35:00,
2013-08-13 07:40:00,68.3,67.1,29.94,SSE,152,2.5,3.2,96,0.00,,-RA,0.02,VWS V14.00,2013-08-13 11:40:00,
2013-08-13 07:45:00,68.3,67.4,29.94,SE,145,4.4,6.4,97,0.00,,-RA,0.02,VWS V14.00,2013-08-13 11:45:00,
2013-08-13 07:50:00,68.3,67.7,29.94,SE,139,3.9,4.8,98,0.00,,-RA,0.02,VWS V14.00,2013-08-13 11:50:00,
2013-08-13 07:55:00,68.3,67.7,29.94,East,92,3.0,3.8,98,0.00,,-RA,0.02,VWS V14.00,2013-08-13 11:55:00,
2013-08-13 08:00:00,68.3,67.7,29.94,SE,144,3.0,3.2,98,0.00,,OVC009,0.02,VWS V14.00,2013-08-13 12:00:00,
2013-08-13 08:05:00,68.3,67.7,29.94,SE,124,3.0,3.2,98,0.00,,OVC009,0.02,VWS V14.00,2013-08-13 12:05:00,
2013-08-13 08:10:00,68.3,67.7,29.94,SSW,197,3.0,4.3,98,0.00,,OVC009,0.02,VWS V14.00,2013-08-13 12:10:00,
2013-08-13 08:15:00,68.3,67.7,29.94,SSE,151,3.9,4.3,98,0.00,,OVC009,0.02,VWS V14.00,2013-08-13 12:15:00,
2013-08-13 08:21:00,68.5,67.9,29.94,South,173,4.4,5.9,98,0.00,,OVC009,0.02,VWS V14.00,2013-08-13 12:21:00,
2013-08-13 08:26:00,68.5,67.9,29.94,SE,133,5.4,7.0,98,0.00,,OVC009,0.02,VWS V14.00,2013-08-13 12:26:00,
2013-08-13 08:31:00,68.7,68.1,29.94,SSE,148,3.4,3.8,98,0.00,,-RA,0.02,VWS V14.00,2013-08-13 12:31:00,
2013-08-13 08:36:00,68.8,68.3,29.94,South,178,3.0,4.8,98,0.00,,-RA,0.02,VWS V14.00,2013-08-13 12:36:00,
2013-08-13 08:41:00,69.0,68.5,29.94,SSE,160,3.0,3.8,98,0.00,,-RA,0.02,VWS V14.00,2013-08-13 12:41:00,
2013-08-13 08:46:00,69.0,68.2,29.94,SE,143,3.9,4.3,97,0.00,,RA,0.02,VWS V14.00,2013-08-13 12:46:00,
2013-08-13 08:51:00,69.2,68.0,29.94,South,189,3.4,3.8,96,0.00,,RA,0.02,VWS V14.00,2013-08-13 12:51:00,
2013-08-13 08:56:00,69.4,67.9,29.94,South,174,3.4,3.8,95,0.00,,RA,0.02,VWS V14.00,2013-08-13 12:56:00,
2013-08-13 09:01:00,69.6,68.4,29.94,South,170,4.4,4.8,96,0.00,,-RA,0.02,VWS V14.00,2013-08-13 13:01:00,
2013-08-13 09:06:00,69.6,68.4,29.94,ESE,119,3.0,4.8,96,0.00,,-RA,0.02,VWS V14.00,2013-08-13 13:06:00,
2013-08-13 09:12:00,69.6,68.4,29.94,SE,140,3.0,4.3,96,0.00,,-RA,0.02,VWS V14.00,2013-08-13 13:12:00,
2013-08-13 09:17:00,69.4,68.2,29.94,SE,146,0.0,3.2,96,0.00,,-RA,0.02,VWS V14.00,2013-08-13 13:17:00,
2013-08-13 09:22:00,69.4,68.5,29.94,South,182,3.0,4.8,97,0.00,,-RA,0.02,VWS V14.00,2013-08-13 13:22:00,
2013-08-13 09:27:00,69.4,68.5,29.94,SSW,200,3.0,4.3,97,0.00,,-RA,0.02,VWS V14.00,2013-08-13 13:27:00,
2013-08-13 09:32:00,69.4,68.5,29.94,South,183,4.4,4.8,97,0.00,,-RA,0.02,VWS V14.00,2013-08-13 13:32:00,
2013-08-13 09:37:00,69.4,68.5,29.94,SSE,162,0.0,3.2,97,0.00,,-RA,0.02,VWS V14.00,2013-08-13 13:37:00,
2013-08-13 09:42:00,69.4,68.5,29.94,SSW,211,2.5,3.8,97,0.00,,-RA,0.02,VWS V14.00,2013-08-13 13:42:00,
2013-08-13 09:47:00,69.2,68.3,29.94,SSE,160,0.0,0.0,97,0.00,,-RA,0.02,VWS V14.00,2013-08-13 13:47:00,
2013-08-13 09:52:00,69.2,68.6,29.94,SSE,148,0.0,3.2,98,0.00,,-RA,0.02,VWS V14.00,2013-08-13 13:52:00,
2013-08-13 09:57:00,69.4,68.8,29.94,South,181,2.5,3.2,98,0.00,,-RA,0.02,VWS V14.00,2013-08-13 13:57:00,
2013-08-13 10:03:00,69.2,68.6,29.94,SSE,162,2.5,4.8,98,0.00,,-RA,0.02,VWS V14.00,2013-08-13 14:03:00,
2013-08-13 10:08:00,69.2,68.6,29.94,SSE,157,3.0,3.2,98,0.00,,-RA,0.02,VWS V14.00,2013-08-13 14:08:00,
2013-08-13 10:13:00,69.4,68.8,29.94,SSE,148,3.4,3.8,98,0.00,,-RA,0.02,VWS V14.00,2013-08-13 14:13:00,
2013-08-13 10:18:00,69.6,69.0,29.94,South,171,5.4,5.9,98,0.00,,-RA,0.02,VWS V14.00,2013-08-13 14:18:00,
2013-08-13 10:23:00,70.0,69.4,29.94,SW,224,3.0,4.8,98,0.00,,-RA,0.02,VWS V14.00,2013-08-13 14:23:00,
2013-08-13 10:28:00,70.2,69.6,29.94,SSW,199,3.0,4.3,98,0.00,,-RA,0.02,VWS V14.00,2013-08-13 14:28:00,
2013-08-13 10:33:00,70.3,69.4,29.94,SSE,163,6.4,7.0,97,0.00,,-RA,0.02,VWS V14.00,2013-08-13 14:33:00,
2013-08-13 10:38:00,70.5,69.6,29.94,SSW,209,3.9,4.3,97,0.00,,-RA,0.02,VWS V14.00,2013-08-13 14:38:00,
2013-08-13 10:43:00,71.1,69.9,29.94,South,180,4.4,6.4,96,0.00,,-RA,0.02,VWS V14.00,2013-08-13 14:43:00,
2013-08-13 10:48:00,71.4,69.9,29.94,SSE,162,5.4,7.5,95,0.00,,-RA,0.02,VWS V14.00,2013-08-13 14:48:00,
2013-08-13 10:53:00,71.6,69.2,29.94,SW,230,4.4,6.4,92,0.00,,-RA,0.02,VWS V14.00,2013-08-13 14:53:00,
2013-08-13 10:58:00,71.8,69.4,29.94,SSW,196,3.9,4.3,92,0.00,,-RA,0.02,VWS V14.00,2013-08-13 14:58:00,
2013-08-13 11:03:00,72.0,68.3,29.94,West,262,2.5,4.3,88,0.00,,OVC024,0.02,VWS V14.00,2013-08-13 15:03:00,
2013-08-13 11:08:00,72.0,68.3,29.94,SSW,211,3.0,4.3,88,0.00,,OVC024,0.02,VWS V14.00,2013-08-13 15:08:00,
2013-08-13 11:14:00,72.0,68.6,29.94,SSE,149,3.9,7.0,89,0.00,,OVC024,0.02,VWS V14.00,2013-08-13 15:14:00,
2013-08-13 11:19:00,72.0,67.9,29.94,SSE,167,3.9,4.8,87,0.00,,OVC039,0.02,VWS V14.00,2013-08-13 15:19:00,
2013-08-13 11:24:00,72.2,67.8,29.94,South,172,3.9,4.3,86,0.00,,OVC039,0.02,VWS V14.00,2013-08-13 15:24:00,
2013-08-13 11:29:00,72.8,68.0,29.94,SSW,208,3.4,4.8,85,0.00,,OVC039,0.02,VWS V14.00,2013-08-13 15:29:00,
2013-08-13 11:34:00,72.9,68.2,29.94,South,189,3.0,5.4,85,0.00,,OVC039,0.02,VWS V14.00,2013-08-13 15:34:00,
2013-08-13 11:39:00,73.3,68.2,29.94,SSE,162,3.0,4.3,84,0.00,,OVC039,0.02,VWS V14.00,2013-08-13 15:39:00,
2013-08-13 11:44:00,73.7,67.5,29.94,SE,141,2.5,3.8,81,0.00,,OVC039,0.02,VWS V14.00,2013-08-13 15:44:00,
2013-08-13 11:49:00,74.1,68.2,29.94,WSW,246,4.4,4.8,82,0.00,,OVC042,0.02,VWS V14.00,2013-08-13 15:49:00,
2013-08-13 11:54:00,73.9,66.6,29.94,WSW,246,3.4,5.9,78,0.00,,OVC042,0.02,VWS V14.00,2013-08-13 15:54:00,
2013-08-13 11:59:00,73.9,66.2,29.94,South,177,5.9,6.4,77,0.00,,OVC042,0.02,VWS V14.00,2013-08-13 15:59:00,
2013-08-13 12:04:00,73.9,64.3,29.94,SSE,153,4.4,4.8,72,0.00,,OVC040,0.02,VWS V14.00,2013-08-13 16:04:00,
2013-08-13 12:09:00,74.2,65.8,29.94,NW,313,4.4,4.8,75,0.00,,OVC040,0.02,VWS V14.00,2013-08-13 16:09:00,
2013-08-13 12:14:00,75.5,66.7,29.94,NW,309,2.5,3.8,74,0.00,,OVC040,0.02,VWS V14.00,2013-08-13 16:14:00,
2013-08-13 12:19:00,75.7,64.4,29.94,WNW,285,3.9,4.8,68,0.00,,OVC044,0.02,VWS V14.00,2013-08-13 16:19:00,
2013-08-13 12:24:00,75.3,64.1,29.94,NNW,337,5.9,7.5,68,0.00,,OVC044,0.02,VWS V14.00,2013-08-13 16:24:00,
2013-08-13 12:29:00,76.6,64.9,29.94,NW,326,5.9,9.7,67,0.00,,OVC044,0.02,VWS V14.00,2013-08-13 16:29:00,
2013-08-13 12:34:00,76.6,61.7,29.94,WNW,293,5.4,6.4,60,0.00,,OVC090,0.02,VWS V14.00,2013-08-13 16:34:00,
2013-08-13 12:39:00,75.5,61.2,29.94,North,1,4.4,7.5,61,0.00,,OVC090,0.02,VWS V14.00,2013-08-13 16:39:00,
2013-08-13 12:45:00,75.5,62.1,29.94,SE,139,3.4,5.9,63,0.00,,OVC090,0.02,VWS V14.00,2013-08-13 16:45:00,
2013-08-13 12:50:00,75.2,61.7,29.94,WNW,301,6.4,7.5,63,0.00,,OVC090,0.02,VWS V14.00,2013-08-13 16:50:00,
2013-08-13 12:55:00,75.5,61.6,29.94,NW,322,6.4,7.0,62,0.00,,OVC090,0.02,VWS V14.00,2013-08-13 16:55:00,
2013-08-13 13:00:00,76.1,60.7,29.94,NNW,329,5.4,7.5,59,0.00,,OVC090,0.02,VWS V14.00,2013-08-13 17:00:00,
2013-08-13 13:05:00,77.0,62.1,29.94,NNW,327,11.1,12.6,60,0.00,,OVC060,0.02,VWS V14.00,2013-08-13 17:05:00,
2013-08-13 13:12:00,77.9,63.0,29.94,NW,320,6.4,7.0,60,0.00,,OVC060,0.02,VWS V14.00,2013-08-13 17:12:00,
2013-08-13 13:17:00,77.9,60.5,29.94,NNW,330,4.4,9.1,55,0.00,,OVC060,0.02,VWS V14.00,2013-08-13 17:17:00,
2013-08-13 13:22:00,78.3,61.3,29.94,WNW,302,6.9,9.7,56,0.00,,OVC060,0.02,VWS V14.00,2013-08-13 17:22:00,
2013-08-13 13:27:00,78.3,59.8,29.94,North,0,6.4,9.1,53,0.00,,OVC060,0.02,VWS V14.00,2013-08-13 17:27:00,
2013-08-13 13:32:00,77.8,59.8,29.94,NNW,329,5.9,9.9,54,0.00,,OVC060,0.02,VWS V14.00,2013-08-13 17:32:00,
2013-08-13 13:37:00,77.8,60.3,29.94,NW,315,6.9,10.5,55,0.00,,OVC060,0.02,VWS V14.00,2013-08-13 17:37:00,
2013-08-13 13:43:00,77.9,60.0,29.94,NW,316,6.9,9.7,54,0.00,,OVC060,0.02,VWS V14.00,2013-08-13 17:43:00,
2013-08-13 13:48:00,77.9,59.5,29.94,West,272,3.9,6.4,53,0.00,,OVC060,0.02,VWS V14.00,2013-08-13 17:48:00,
2013-08-13 13:53:00,78.3,62.3,29.94,SW,222,3.9,4.8,58,0.00,,OVC060,0.02,VWS V14.00,2013-08-13 17:53:00,
2013-08-13 13:58:00,78.7,61.7,29.94,WSW,246,3.4,4.3,56,0.00,,OVC060,0.02,VWS V14.00,2013-08-13 17:58:00,
2013-08-13 14:03:00,78.5,62.0,29.94,WNW,302,4.4,6.4,57,0.00,,-RA,0.02,VWS V14.00,2013-08-13 18:03:00,
2013-08-13 14:08:00,78.3,61.8,29.94,NNW,341,3.4,5.9,57,0.00,,-RA,0.02,VWS V14.00,2013-08-13 18:08:00,
2013-08-13 14:13:00,78.5,62.5,29.94,West,265,4.4,7.0,58,0.00,,-RA,0.02,VWS V14.00,2013-08-13 18:13:00,
2013-08-13 14:18:00,78.7,61.7,29.91,WSW,239,0.0,3.8,56,0.00,,-RA,0.02,VWS V14.00,2013-08-13 18:18:00,
2013-08-13 14:23:00,78.1,62.2,29.91,SSE,166,3.4,6.4,58,0.00,,-RA,0.02,VWS V14.00,2013-08-13 18:23:00,
2013-08-13 14:28:00,78.3,61.3,29.91,WSW,242,6.4,7.0,56,0.00,,-RA,0.02,VWS V14.00,2013-08-13 18:28:00,
2013-08-13 14:33:00,79.1,62.5,29.91,West,279,3.4,5.9,57,0.00,,-RA,0.02,VWS V14.00,2013-08-13 18:33:00,
2013-08-13 14:39:00,79.2,61.7,29.91,NW,315,5.9,7.0,55,0.00,,-RA,0.02,VWS V14.00,2013-08-13 18:39:00,
2013-08-13 14:44:00,79.8,62.2,29.91,WSW,246,3.9,7.0,55,0.00,,-RA,0.02,VWS V14.00,2013-08-13 18:44:00,
2013-08-13 14:49:00,78.7,61.2,29.91,WSW,256,3.4,8.1,55,0.00,,OVC095,0.02,VWS V14.00,2013-08-13 18:49:00,
2013-08-13 14:54:00,79.1,62.5,29.91,WSW,240,4.4,4.8,57,0.00,,OVC095,0.02,VWS V14.00,2013-08-13 18:54:00,
2013-08-13 14:59:00,78.5,60.5,29.91,SW,222,4.4,4.8,54,0.00,,OVC095,0.02,VWS V14.00,2013-08-13 18:59:00,
2013-08-13 15:04:00,78.1,62.2,29.91,WNW,288,4.4,5.4,58,0.00,,OVC090,0.02,VWS V14.00,2013-08-13 19:04:00,
2013-08-13 15:09:00,77.9,62.0,29.91,NW,325,3.0,5.9,58,0.00,,OVC090,0.02,VWS V14.00,2013-08-13 19:09:00,
2013-08-13 15:14:00,77.8,60.3,29.91,WNW,300,5.4,7.0,55,0.00,,OVC090,0.02,VWS V14.00,2013-08-13 19:14:00,
2013-08-13 15:19:00,77.6,60.7,29.91,WNW,288,4.4,4.8,56,0.00,,OVC090,0.02,VWS V14.00,2013-08-13 19:19:00,
2013-08-13 15:24:00,77.6,61.2,29.91,West,272,4.4,4.8,57,0.00,,OVC090,0.02,VWS V14.00,2013-08-13 19:24:00,
2013-08-13 15:29:00,77.0,61.1,29.91,South,172,3.4,7.0,58,0.00,,OVC090,0.02,VWS V14.00,2013-08-13 19:29:00,
2013-08-13 15:34:00,77.0,60.6,29.91,WSW,241,0.0,4.8,57,0.00,,OVC090,0.02,VWS V14.00,2013-08-13 19:34:00,
2013-08-13 15:40:00,77.0,61.6,29.91,WSW,238,4.4,4.8,59,0.00,,OVC090,0.02,VWS V14.00,2013-08-13 19:40:00,
2013-08-13 15:45:00,76.8,61.4,29.91,West,280,5.9,6.4,59,0.00,,OVC090,0.02,VWS V14.00,2013-08-13 19:45:00,
2013-08-13 15:50:00,76.6,61.2,29.91,South,172,3.9,6.4,59,0.00,,OVC090,0.02,VWS V14.00,2013-08-13 19:50:00,
2013-08-13 15:55:00,76.6,61.2,29.91,SW,229,5.9,6.4,59,0.00,,OVC090,0.02,VWS V14.00,2013-08-13 19:55:00,
2013-08-13 16:00:00,76.8,61.9,29.91,NW,306,4.4,7.0,60,0.00,,BKN080,0.02,VWS V14.00,2013-08-13 20:00:00,
2013-08-13 16:05:00,76.8,61.9,29.91,SW,229,4.4,4.8,60,0.00,,BKN080,0.02,VWS V14.00,2013-08-13 20:05:00,
2013-08-13 16:10:00,76.6,62.2,29.91,West,273,3.9,4.8,61,0.00,,BKN080,0.02,VWS V14.00,2013-08-13 20:10:00,
2013-08-13 16:15:00,76.6,61.7,29.91,SW,218,3.0,6.4,60,0.00,,BKN080,0.02,VWS V14.00,2013-08-13 20:15:00,
2013-08-13 16:20:00,76.5,61.6,29.91,WSW,248,5.9,7.5,60,0.00,,BKN080,0.02,VWS V14.00,2013-08-13 20:20:00,
2013-08-13 16:25:00,76.5,62.0,29.91,West,277,0.0,3.2,61,0.00,,BKN080,0.02,VWS V14.00,2013-08-13 20:25:00,
2013-08-13 16:30:00,76.1,62.1,29.91,SW,214,0.0,3.8,62,0.00,,BKN032,0.02,VWS V14.00,2013-08-13 20:30:00,
2013-08-13 16:35:00,76.3,61.8,29.91,NW,325,5.4,5.9,61,0.00,,BKN032,0.02,VWS V14.00,2013-08-13 20:35:00,
2013-08-13 16:41:00,76.5,62.0,29.91,WSW,246,3.9,4.8,61,0.00,,BKN032,0.02,VWS V14.00,2013-08-13 20:41:00,
2013-08-13 16:46:00,76.6,61.7,29.91,WSW,249,4.4,5.9,60,0.00,,OVC095,0.02,VWS V14.00,2013-08-13 20:46:00,
2013-08-13 16:51:00,76.6,61.2,29.91,SW,230,3.0,4.8,59,0.00,,OVC095,0.02,VWS V14.00,2013-08-13 20:51:00,
2013-08-13 16:56:00,77.4,62.4,29.91,West,281,4.4,4.8,60,0.00,,OVC095,0.02,VWS V14.00,2013-08-13 20:56:00,
2013-08-13 17:01:00,77.0,62.1,29.91,WNW,288,4.4,7.0,60,0.00,,SCT110,0.02,VWS V14.00,2013-08-13 21:01:00,
2013-08-13 17:06:00,77.0,62.1,29.91,WSW,246,3.9,4.3,60,0.00,,SCT110,0.02,VWS V14.00,2013-08-13 21:06:00,
2013-08-13 17:11:00,76.6,62.2,29.91,WSW,251,3.4,4.8,61,0.00,,SCT110,0.02,VWS V14.00,2013-08-13 21:11:00,
2013-08-13 17:16:00,76.3,62.3,29.91,West,273,2.5,3.8,62,0.00,,SCT110,0.02,VWS V14.00,2013-08-13 21:16:00,
2013-08-13 17:21:00,76.1,62.6,29.91,NNW,327,5.9,6.4,63,0.00,,SCT110,0.02,VWS V14.00,2013-08-13 21:21:00,
2013-08-13 17:26:00,75.7,62.2,29.91,NNW,336,6.4,7.0,63,0.00,,SCT110,0.02,VWS V14.00,2013-08-13 21:26:00,
2013-08-13 17:31:00,75.0,61.5,29.91,NNW,331,7.4,8.1,63,0.00,,SCT110,0.02,VWS V14.00,2013-08-13 21:31:00,
2013-08-13 17:36:00,74.6,60.7,29.91,NNW,345,7.9,12.6,62,0.00,,SCT110,0.02,VWS V14.00,2013-08-13 21:36:00,
2013-08-13 17:41:00,74.1,61.1,29.91,NW,308,13.5,15.3,64,0.00,,SCT110,0.02,VWS V14.00,2013-08-13 21:41:00,
2013-08-13 17:46:00,72.6,61.4,29.91,NNW,346,5.9,9.7,68,0.00,,SCT110,0.02,VWS V14.00,2013-08-13 21:46:00,
2013-08-13 17:51:00,71.6,60.9,29.91,North,353,6.4,9.1,69,0.00,,SCT110,0.02,VWS V14.00,2013-08-13 21:51:00,
2013-08-13 17:56:00,71.1,61.2,29.91,NNW,346,3.9,4.3,71,0.00,,SCT110,0.02,VWS V14.00,2013-08-13 21:56:00,
2013-08-13 18:01:00,71.3,62.2,29.94,West,280,2.5,2.7,73,0.01,,-RA,0.03,VWS V14.00,2013-08-13 22:01:00,
2013-08-13 18:07:00,71.1,62.0,29.94,North,8,0.0,3.2,73,0.01,,-RA,0.03,VWS V14.00,2013-08-13 22:07:00,
2013-08-13 18:12:00,70.9,63.0,29.94,NW,312,0.0,3.2,76,0.01,,-RA,0.03,VWS V14.00,2013-08-13 22:12:00,
2013-08-13 18:17:00,70.5,63.7,29.94,ESE,110,0.0,0.0,79,0.01,,-RA,0.03,VWS V14.00,2013-08-13 22:17:00,
2013-08-13 18:22:00,70.5,64.1,29.94,ESE,111,3.0,3.2,80,0.01,,-RA,0.03,VWS V14.00,2013-08-13 22:22:00,
2013-08-13 18:27:00,70.5,63.7,29.94,ESE,111,2.5,2.7,79,0.01,,-RA,0.03,VWS V14.00,2013-08-13 22:27:00,
2013-08-13 18:32:00,70.3,63.9,29.94,SSE,151,3.4,3.8,80,0.02,,-RA,0.04,VWS V14.00,2013-08-13 22:32:00,
2013-08-13 18:37:00,70.2,63.7,29.94,ESE,121,0.0,0.0,80,0.02,,-RA,0.04,VWS V14.00,2013-08-13 22:37:00,
2013-08-13 18:42:00,70.0,63.5,29.94,SE,138,3.0,4.3,80,0.02,,-RA,0.04,VWS V14.00,2013-08-13 22:42:00,
2013-08-13 18:47:00,69.8,63.7,29.94,SE,142,3.4,4.3,81,0.02,,OVC038,0.04,VWS V14.00,2013-08-13 22:47:00,
2013-08-13 18:52:00,69.8,63.3,29.94,SE,129,3.0,3.2,80,0.02,,OVC038,0.04,VWS V14.00,2013-08-13 22:52:00,
2013-08-13 18:58:00,69.4,63.0,29.94,ESE,111,2.5,3.2,80,0.02,,OVC038,0.04,VWS V14.00,2013-08-13 22:58:00,
2013-08-13 19:03:00,69.2,63.2,29.94,East,93,2.5,3.8,81,0.01,,OVC010,0.04,VWS V14.00,2013-08-13 23:03:00,
2013-08-13 19:08:00,69.2,63.5,29.94,East,93,0.0,0.0,82,0.01,,OVC010,0.04,VWS V14.00,2013-08-13 23:08:00,
2013-08-13 19:13:00,69.4,64.0,29.94,East,93,0.0,0.0,83,0.01,,OVC010,0.04,VWS V14.00,2013-08-13 23:13:00,
2013-08-13 19:18:00,69.4,64.4,29.94,ESE,115,0.0,0.0,84,0.01,,OVC010,0.04,VWS V14.00,2013-08-13 23:18:00,
2013-08-13 19:23:00,69.2,63.8,29.94,NNW,330,0.0,3.2,83,0.01,,OVC010,0.04,VWS V14.00,2013-08-13 23:23:00,
2013-08-13 19:28:00,69.4,64.4,29.94,NNW,330,0.0,0.0,84,0.01,,OVC010,0.04,VWS V14.00,2013-08-13 23:28:00,
2013-08-13 19:33:00,69.2,64.2,29.94,NNW,330,0.0,0.0,84,0.00,,OVC008,0.04,VWS V14.00,2013-08-13 23:33:00,
2013-08-13 19:38:00,69.2,64.2,29.94,WSW,250,0.0,0.0,84,0.00,,OVC008,0.04,VWS V14.00,2013-08-13 23:38:00,
2013-08-13 19:43:00,69.2,64.9,29.94,WSW,250,0.0,0.0,86,0.00,,OVC008,0.04,VWS V14.00,2013-08-13 23:43:00,
2013-08-13 19:49:00,68.7,65.0,29.94,WSW,250,0.0,0.0,88,0.00,,OVC008,0.04,VWS V14.00,2013-08-13 23:49:00,
2013-08-13 19:54:00,69.0,65.7,29.94,WSW,250,0.0,0.0,89,0.00,,OVC008,0.04,VWS V14.00,2013-08-13 23:54:00,
2013-08-13 19:59:00,68.7,65.9,29.94,NNW,340,0.0,0.0,91,0.00,,OVC008,0.04,VWS V14.00,2013-08-13 23:59:00,
2013-08-13 20:04:00,68.8,66.1,29.94,NNW,340,0.0,0.0,91,0.00,,OVC006,0.04,VWS V14.00,2013-08-14 00:04:00,
2013-08-13 20:09:00,68.5,66.1,29.94,NNW,340,0.0,0.0,92,0.00,,OVC006,0.04,VWS V14.00,2013-08-14 00:09:00,
2013-08-13 20:14:00,68.7,66.3,29.94,NNW,340,0.0,0.0,92,0.00,,OVC006,0.04,VWS V14.00,2013-08-14 00:14:00,
2013-08-13 20:19:00,68.8,66.4,29.94,NNW,340,0.0,0.0,92,0.00,,OVC006,0.04,VWS V14.00,2013-08-14 00:19:00,
2013-08-13 20:24:00,68.8,66.4,29.94,NNW,340,0.0,0.0,92,0.00,,OVC006,0.04,VWS V14.00,2013-08-14 00:24:00,
2013-08-13 20:29:00,68.5,66.1,29.94,NNW,348,0.0,0.0,92,0.00,,OVC006,0.04,VWS V14.00,2013-08-14 00:29:00,
2013-08-13 20:34:00,68.7,66.3,29.94,SE,140,0.0,0.0,92,0.00,,,0.04,VWS V14.00,2013-08-14 00:34:00,
2013-08-13 20:39:00,68.5,65.8,29.94,SE,140,0.0,0.0,91,0.00,,,0.04,VWS V14.00,2013-08-14 00:39:00,
2013-08-13 20:44:00,68.5,64.5,29.94,NE,40,0.0,0.0,87,0.00,,,0.04,VWS V14.00,2013-08-14 00:44:00,
2013-08-13 20:49:00,68.5,65.1,29.94,NE,50,0.0,0.0,89,0.00,,,0.04,VWS V14.00,2013-08-14 00:49:00,
2013-08-13 20:54:00,68.3,65.3,29.94,NE,50,0.0,0.0,90,0.00,,,0.04,VWS V14.00,2013-08-14 00:54:00,
2013-08-13 20:59:00,68.1,65.1,29.94,NE,50,0.0,0.0,90,0.00,,,0.04,VWS V14.00,2013-08-14 00:59:00,
2013-08-13 21:04:00,67.9,64.6,29.94,NE,50,0.0,0.0,89,0.00,,SCT008,0.04,VWS V14.00,2013-08-14 01:04:00,
2013-08-13 21:09:00,67.9,64.2,29.94,SSE,147,0.0,2.7,88,0.00,,SCT008,0.04,VWS V14.00,2013-08-14 01:09:00,
2013-08-13 21:15:00,67.6,64.2,29.94,NNW,345,0.0,3.8,89,0.00,,SCT008,0.04,VWS V14.00,2013-08-14 01:15:00,
2013-08-13 21:20:00,67.4,64.3,29.94,NNW,340,0.0,0.0,90,0.00,,BKN010,0.04,VWS V14.00,2013-08-14 01:20:00,
2013-08-13 21:25:00,67.4,64.3,29.94,NNW,340,0.0,0.0,90,0.00,,BKN010,0.04,VWS V14.00,2013-08-14 01:25:00,
2013-08-13 21:30:00,67.2,64.5,29.94,ESE,102,2.5,3.2,91,0.00,,BKN010,0.04,VWS V14.00,2013-08-14 01:30:00,
2013-08-13 21:35:00,67.4,64.7,29.94,ESE,102,0.0,0.0,91,0.00,,BKN010,0.04,VWS V14.00,2013-08-14 01:35:00,
2013-08-13 21:40:00,67.0,64.3,29.94,SSE,154,0.0,0.0,91,0.00,,BKN010,0.04,VWS V14.00,2013-08-14 01:40:00,
2013-08-13 21:45:00,66.8,64.4,29.94,SSE,154,0.0,3.2,92,0.00,,OVC008,0.04,VWS V14.00,2013-08-14 01:45:00,
2013-08-13 21:50:00,67.0,64.9,29.94,SSE,154,0.0,0.0,93,0.00,,OVC008,0.04,VWS V14.00,2013-08-14 01:50:00,
2013-08-13 21:55:00,67.0,64.9,29.94,SSE,154,0.0,0.0,93,0.00,,OVC008,0.04,VWS V14.00,2013-08-14 01:55:00,
2013-08-13 22:00:00,67.0,64.9,29.94,SSE,154,0.0,0.0,93,0.00,,OVC013,0.04,VWS V14.00,2013-08-14 02:00:00,
2013-08-13 22:05:00,66.8,65.0,29.94,SSE,154,0.0,0.0,94,0.00,,OVC013,0.04,VWS V14.00,2013-08-14 02:05:00,
2013-08-13 22:10:00,67.0,65.2,29.94,SSE,154,0.0,0.0,94,0.00,,OVC013,0.04,VWS V14.00,2013-08-14 02:10:00,
2013-08-13 22:15:00,67.0,65.2,29.97,SSE,154,0.0,0.0,94,0.00,,OVC013,0.04,VWS V14.00,2013-08-14 02:15:00,
2013-08-13 22:20:00,66.8,65.3,29.97,SSE,154,0.0,0.0,95,0.00,,OVC013,0.04,VWS V14.00,2013-08-14 02:20:00,
2013-08-13 22:26:00,66.8,65.3,29.97,SSE,154,0.0,0.0,95,0.00,,OVC013,0.04,VWS V14.00,2013-08-14 02:26:00,
2013-08-13 22:31:00,66.6,65.5,29.94,SSE,154,0.0,0.0,96,0.00,,OVC013,0.04,VWS V14.00,2013-08-14 02:31:00,
2013-08-13 22:36:00,66.8,65.6,29.94,SSE,154,0.0,0.0,96,0.00,,OVC013,0.04,VWS V14.00,2013-08-14 02:36:00,
2013-08-13 22:41:00,66.3,64.8,29.94,SSW,199,0.0,0.0,95,0.00,,OVC013,0.04,VWS V14.00,2013-08-14 02:41:00,
2013-08-13 22:46:00,66.3,65.1,29.94,ESE,110,0.0,0.0,96,0.00,,OVC070,0.04,VWS V14.00,2013-08-14 02:46:00,
2013-08-13 22:51:00,66.4,65.3,29.94,ESE,109,0.0,0.0,96,0.00,,OVC070,0.04,VWS V14.00,2013-08-14 02:51:00,
2013-08-13 22:56:00,66.4,65.3,29.94,South,178,2.5,2.7,96,0.00,,OVC070,0.04,VWS V14.00,2013-08-14 02:56:00,
2013-08-13 23:01:00,66.3,65.1,29.94,SE,138,0.0,2.7,96,0.00,,OVC070,0.04,VWS V14.00,2013-08-14 03:01:00,
2013-08-13 23:06:00,66.1,64.6,29.94,SE,138,0.0,0.0,95,0.00,,OVC070,0.04,VWS V14.00,2013-08-14 03:06:00,
2013-08-13 23:11:00,66.1,64.6,29.94,SE,127,0.0,2.7,95,0.00,,OVC070,0.04,VWS V14.00,2013-08-14 03:11:00,
2013-08-13 23:16:00,65.9,64.7,29.97,SE,127,0.0,0.0,96,0.00,,OVC070,0.04,VWS V14.00,2013-08-14 03:16:00,
2013-08-13 23:21:00,65.7,64.5,29.97,SE,127,0.0,0.0,96,0.00,,OVC070,0.04,VWS V14.00,2013-08-14 03:21:00,
2013-08-13 23:26:00,65.9,64.4,29.97,SE,127,0.0,0.0,95,0.00,,OVC070,0.04,VWS V14.00,2013-08-14 03:26:00,
2013-08-13 23:31:00,65.7,64.5,29.97,SE,127,0.0,0.0,96,0.00,,OVC070,0.04,VWS V14.00,2013-08-14 03:31:00,
2013-08-13 23:36:00,65.7,64.2,29.97,SE,127,0.0,0.0,95,0.00,,OVC070,0.04,VWS V14.00,2013-08-14 03:36:00,
2013-08-13 23:42:00,65.5,64.1,29.97,SE,127,0.0,0.0,95,0.00,,OVC070,0.04,VWS V14.00,2013-08-14 03:42:00,
2013-08-13 23:47:00,65.3,63.3,29.97,SE,127,0.0,0.0,93,0.00,,OVC070,0.04,VWS V14.00,2013-08-14 03:47:00,
2013-08-13 23:52:00,65.0,63.5,29.97,SE,127,0.0,0.0,95,0.00,,OVC070,0.04,VWS V14.00,2013-08-14 03:52:00,
2013-08-13 23:57:00,65.0,63.5,29.97,ENE,63,0.0,0.0,95,0.00,,OVC070,0.04,VWS V14.00,2013-08-14 03:57:00,